North Chicago, IL (60064)

10:55 AM CDT on September 26, 2016 (GMT -0500)
Great Lakes Naval Station | | Change Station

Elev 673 ft 42.31 °N, 87.83 °W | Updated 4 minutes ago

Clear
Clear
65.5 °F
Feels Like 65.5 °F
N
12.0
Wind Variable Wind from SSW

Today
High -- | Low -- °F
--% Chance of Precip.
Yesterday
High -- | Low -- °F
Precip. -- in
Pressure 29.94 in
Visibility 10.0 miles
Clouds Clear
Dew Point 46 °F
Humidity 50%
Rainfall 0.00 in
Snow Depth Not available.
6:43 AM 6:40 PM
Waning Crescent, 18% visible
METAR KUGN 261455Z 28008G16KT 10SM CLR 17/07 A2995 RMK AO2 SLP137 T01670072 58003
Pressure 29.94 in
Visibility 10.0 miles
Clouds Clear
Dew Point 46 °F
Humidity 50%
Rainfall 0.00 in
Snow Depth Not available.
6:43 AM 6:40 PM
Waning Crescent, 18% visible
METAR KUGN 261455Z 28008G16KT 10SM CLR 17/07 A2995 RMK AO2 SLP137 T01670072 58003

10-Day Weather Forecast

Almanac

Astronomy

Sep. 26, 2016 Rise Set
Actual Time
Civil Twilight
Nautical Twilight
Astronomical Twilight
Moon
Length of Visible Light
Length of Day
Tomorrow will be .
, % of the Moon is Illuminated

Today's Extremes

State Highs State Lows

Community

WunderPhotos

Upload Photos

1,941,906 photos uploaded!

WunderBlog® & News

Nearby

Air Quality

  Air Quality AQ Index Pollutant
Not available.

Snow Depth

Station Depth Elevation

Earthquake Activity

City Distance Mag. Time & Date
Minimum magnitude displayed is 2.5.

Coastal Water Temperatures

Place Temperature

Stations

Nearby Weather Stations

Station Location Temp. Windchill Dew Point Humidity Wind Precip. Elev Updated Type
                   

Watches & Warnings

There are currently no watches in effect.